createdAt,value
2019-02-07T00:00:23.584Z,1020.77
2019-02-07T00:01:24.074Z,1020.82
2019-02-07T00:02:24.134Z,1020.78
2019-02-07T00:03:23.672Z,1020.79
2019-02-07T00:04:24.510Z,1020.76
2019-02-07T00:05:24.203Z,1020.73
2019-02-07T00:06:25.440Z,1020.72
2019-02-07T00:07:23.738Z,1020.72
2019-02-07T00:08:24.210Z,1020.75
2019-02-07T00:09:23.670Z,1020.71
2019-02-07T00:10:23.602Z,1020.72
2019-02-07T00:11:24.043Z,1020.74
2019-02-07T00:12:23.957Z,1020.73
2019-02-07T00:13:23.955Z,1020.71
2019-02-07T00:14:23.979Z,1020.71
2019-02-07T00:15:24.058Z,1020.7
2019-02-07T00:16:23.615Z,1020.72
2019-02-07T00:17:24.335Z,1020.76
2019-02-07T00:18:23.619Z,1020.71
2019-02-07T00:19:23.987Z,1020.69
2019-02-07T00:20:23.697Z,1020.66
2019-02-07T00:21:23.798Z,1020.71
2019-02-07T00:22:23.681Z,1020.67
2019-02-07T00:23:23.791Z,1020.68
2019-02-07T00:24:23.561Z,1020.71
2019-02-07T00:25:24.183Z,1020.68
2019-02-07T00:26:24.443Z,1020.7
2019-02-07T00:27:23.581Z,1020.66
2019-02-07T00:28:23.838Z,1020.63
2019-02-07T00:29:23.855Z,1020.6
2019-02-07T00:30:24.059Z,1020.54
2019-02-07T00:31:24.601Z,1020.55
2019-02-07T00:32:23.769Z,1020.55
2019-02-07T00:33:25.979Z,1020.53
2019-02-07T00:34:24.284Z,1020.53
2019-02-07T00:35:24.417Z,1020.49
2019-02-07T00:36:23.594Z,1020.51
2019-02-07T00:37:24.010Z,1020.54
2019-02-07T00:38:23.577Z,1020.54
2019-02-07T00:39:24.420Z,1020.55
2019-02-07T00:40:23.919Z,1020.58
2019-02-07T00:41:24.082Z,1020.57
2019-02-07T00:42:24.244Z,1020.55
2019-02-07T00:43:23.634Z,1020.54
2019-02-07T00:44:23.746Z,1020.52
2019-02-07T00:45:23.525Z,1020.49
2019-02-07T00:46:23.757Z,1020.45
2019-02-07T00:47:24.068Z,1020.44
2019-02-07T00:48:23.642Z,1020.42
2019-02-07T00:49:25.419Z,1020.42
2019-02-07T00:50:24.542Z,1020.42
2019-02-07T00:51:23.547Z,1020.38
2019-02-07T00:52:24.600Z,1020.38
2019-02-07T00:53:23.637Z,1020.36
2019-02-07T00:54:24.422Z,1020.32
2019-02-07T00:55:23.562Z,1020.31
2019-02-07T00:56:23.873Z,1020.33
2019-02-07T00:57:23.690Z,1020.32
2019-02-07T00:58:23.840Z,1020.32
2019-02-07T00:59:23.845Z,1020.22
2019-02-07T01:00:23.507Z,1020.21
2019-02-07T01:01:23.627Z,1020.24
2019-02-07T01:02:23.760Z,1020.21
2019-02-07T01:03:25.357Z,1020.19
2019-02-07T01:04:24.190Z,1020.14
2019-02-07T01:05:23.880Z,1020.13
2019-02-07T01:06:23.521Z,1020.07
2019-02-07T01:07:23.643Z,1020.08
2019-02-07T01:08:23.676Z,1020.1
2019-02-07T01:09:23.581Z,1020.11
2019-02-07T01:10:23.919Z,1020.14
2019-02-07T01:11:23.522Z,1020.13
2019-02-07T01:12:24.445Z,1020.17
2019-02-07T01:13:23.526Z,1020.15
2019-02-07T01:14:23.650Z,1020.16
2019-02-07T01:15:23.680Z,1020.13
2019-02-07T01:16:24.261Z,1020.07
2019-02-07T01:17:23.532Z,1020.13
2019-02-07T01:18:24.062Z,1020.1
2019-02-07T01:19:23.565Z,1020.1
2019-02-07T01:20:23.529Z,1020.1
2019-02-07T01:21:24.383Z,1020.08
2019-02-07T01:22:23.583Z,1020.04
2019-02-07T01:23:23.797Z,1020.03
2019-02-07T01:24:23.814Z,1020.01
2019-02-07T01:25:23.631Z,1019.98
2019-02-07T01:26:23.576Z,1019.97
2019-02-07T01:27:23.877Z,1019.98
2019-02-07T01:28:25.327Z,1019.98
2019-02-07T01:29:23.485Z,1020.01
2019-02-07T01:30:23.641Z,1020
2019-02-07T01:31:23.739Z,1019.96
2019-02-07T01:32:23.445Z,1019.94
2019-02-07T01:33:23.451Z,1019.94
2019-02-07T01:34:23.762Z,1019.96
2019-02-07T01:35:24.129Z,1019.91
2019-02-07T01:36:23.523Z,1019.93
2019-02-07T01:37:23.513Z,1019.95
2019-02-07T01:38:23.581Z,1019.92
2019-02-07T01:39:23.590Z,1019.88
2019-02-07T01:40:24.578Z,1019.86
2019-02-07T01:41:23.461Z,1019.87
2019-02-07T01:42:24.328Z,1019.87
2019-02-07T01:43:24.026Z,1019.83
2019-02-07T01:44:24.230Z,1019.8
2019-02-07T01:45:23.523Z,1019.8
2019-02-07T01:46:24.149Z,1019.8
2019-02-07T01:47:23.594Z,1019.8
2019-02-07T01:48:23.422Z,1019.82
2019-02-07T01:49:23.861Z,1019.81
2019-02-07T01:50:23.765Z,1019.79
2019-02-07T01:51:25.289Z,1019.8
2019-02-07T01:52:23.992Z,1019.75
2019-02-07T01:53:23.991Z,1019.76
2019-02-07T01:54:23.896Z,1019.74
2019-02-07T01:55:24.204Z,1019.72
2019-02-07T01:56:25.247Z,1019.66
2019-02-07T01:57:23.652Z,1019.6
2019-02-07T01:58:24.484Z,1019.59
2019-02-07T01:59:23.482Z,1019.54
2019-02-07T02:00:23.639Z,1019.58
2019-02-07T02:01:25.276Z,1019.54
2019-02-07T02:02:25.271Z,1019.56
2019-02-07T02:03:23.536Z,1019.58
2019-02-07T02:04:23.858Z,1019.54
2019-02-07T02:05:23.660Z,1019.51
2019-02-07T02:06:24.845Z,1019.53
2019-02-07T02:07:23.419Z,1019.57
2019-02-07T02:08:23.690Z,1019.59
2019-02-07T02:09:23.794Z,1019.55
2019-02-07T02:10:23.441Z,1019.55
2019-02-07T02:11:23.421Z,1019.52
2019-02-07T02:12:23.707Z,1019.55
2019-02-07T02:13:24.223Z,1019.57
2019-02-07T02:14:23.923Z,1019.5
2019-02-07T02:15:25.379Z,1019.52
2019-02-07T02:16:24.297Z,1019.53
2019-02-07T02:17:23.507Z,1019.48
2019-02-07T02:18:23.749Z,1019.47
2019-02-07T02:19:23.951Z,1019.45
2019-02-07T02:20:23.419Z,1019.43
2019-02-07T02:21:23.715Z,1019.4
2019-02-07T02:22:23.763Z,1019.44
2019-02-07T02:23:23.434Z,1019.41
2019-02-07T02:24:23.987Z,1019.44
2019-02-07T02:25:23.368Z,1019.41
2019-02-07T02:26:23.434Z,1019.41
2019-02-07T02:27:23.515Z,1019.42
2019-02-07T02:28:23.486Z,1019.41
2019-02-07T02:29:23.770Z,1019.42
2019-02-07T02:30:23.414Z,1019.45
2019-02-07T02:31:23.730Z,1019.44
2019-02-07T02:32:23.846Z,1019.47
2019-02-07T02:33:24.057Z,1019.5
2019-02-07T02:34:23.601Z,1019.45
2019-02-07T02:35:23.805Z,1019.41
2019-02-07T02:36:23.359Z,1019.33
2019-02-07T02:37:23.387Z,1019.27
2019-02-07T02:38:23.483Z,1019.25
2019-02-07T02:39:23.581Z,1019.23
2019-02-07T02:40:23.385Z,1019.23
2019-02-07T02:41:23.212Z,1019.18
2019-02-07T02:42:23.189Z,1019.17
2019-02-07T02:43:23.706Z,1019.12
2019-02-07T02:44:24.175Z,1019.11
2019-02-07T02:45:37.950Z,1019.02
2019-02-07T02:46:23.201Z,1019.06
2019-02-07T02:47:23.413Z,1019.15
2019-02-07T02:48:23.357Z,1019.19
2019-02-07T02:49:23.863Z,1019.25
2019-02-07T02:50:23.342Z,1019.22
2019-02-07T02:51:23.954Z,1019.12
2019-02-07T02:52:23.817Z,1019.08
2019-02-07T02:53:23.416Z,1019.09
2019-02-07T02:54:23.328Z,1019.03
2019-02-07T02:55:23.399Z,1019.01
2019-02-07T02:56:23.580Z,1018.98
2019-02-07T02:57:23.502Z,1019.02
2019-02-07T02:58:23.596Z,1019.03
2019-02-07T02:59:23.331Z,1019.07
2019-02-07T03:00:23.377Z,1019.04
2019-02-07T03:01:23.655Z,1019.03
2019-02-07T03:02:23.734Z,1018.99
2019-02-07T03:03:23.632Z,1019
2019-02-07T03:04:23.536Z,1019.01
2019-02-07T03:05:23.390Z,1018.98
2019-02-07T03:06:23.318Z,1018.96
2019-02-07T03:07:23.314Z,1018.91
2019-02-07T03:08:23.572Z,1018.87
2019-02-07T03:09:23.415Z,1018.87
2019-02-07T03:10:23.532Z,1018.82
2019-02-07T03:11:23.450Z,1018.84
2019-02-07T03:12:23.726Z,1018.81
2019-02-07T03:13:23.338Z,1018.79
2019-02-07T03:14:23.297Z,1018.79
2019-02-07T03:15:23.755Z,1018.76
2019-02-07T03:16:23.610Z,1018.76
2019-02-07T03:17:23.409Z,1018.75
2019-02-07T03:18:23.626Z,1018.71
2019-02-07T03:19:23.634Z,1018.74
2019-02-07T03:20:23.650Z,1018.7
2019-02-07T03:21:23.317Z,1018.68
2019-02-07T03:22:23.473Z,1018.67
2019-02-07T03:23:23.821Z,1018.69
2019-02-07T03:24:23.677Z,1018.69
2019-02-07T03:25:23.327Z,1018.72
2019-02-07T03:26:23.376Z,1018.71
2019-02-07T03:27:23.671Z,1018.74
2019-02-07T03:28:23.802Z,1018.7
2019-02-07T03:29:23.704Z,1018.71
2019-02-07T03:30:23.728Z,1018.66
2019-02-07T03:31:23.662Z,1018.66
2019-02-07T03:32:23.478Z,1018.7
2019-02-07T03:33:24.190Z,1018.63
2019-02-07T03:34:24.044Z,1018.64
2019-02-07T03:35:23.360Z,1018.63
2019-02-07T03:36:23.651Z,1018.59
2019-02-07T03:37:23.533Z,1018.53
2019-02-07T03:38:23.551Z,1018.49
2019-02-07T03:39:23.464Z,1018.46
2019-02-07T03:40:24.079Z,1018.5
2019-02-07T03:41:23.573Z,1018.47
2019-02-07T03:42:23.486Z,1018.48
2019-02-07T03:43:23.343Z,1018.51
2019-02-07T03:44:23.590Z,1018.58
2019-02-07T03:45:23.340Z,1018.53
2019-02-07T03:46:23.611Z,1018.5
2019-02-07T03:47:23.618Z,1018.49
2019-02-07T03:48:25.118Z,1018.47
2019-02-07T03:49:23.743Z,1018.45
2019-02-07T03:50:23.280Z,1018.33
2019-02-07T03:51:23.247Z,1018.3
2019-02-07T03:52:25.112Z,1018.33
2019-02-07T03:53:24.058Z,1018.34
2019-02-07T03:54:23.710Z,1018.33
2019-02-07T03:55:25.101Z,1018.26
2019-02-07T03:56:23.301Z,1018.19
2019-02-07T03:57:23.277Z,1018.21
2019-02-07T03:58:24.599Z,1018.34
2019-02-07T03:59:23.465Z,1018.42
2019-02-07T04:00:23.237Z,1018.48
2019-02-07T04:01:23.497Z,1018.65
2019-02-07T04:02:25.002Z,1018.65
2019-02-07T04:03:23.345Z,1018.55
2019-02-07T04:04:23.383Z,1018.42
2019-02-07T04:05:23.354Z,1018.4
2019-02-07T04:06:23.397Z,1018.4
2019-02-07T04:07:23.242Z,1018.42
2019-02-07T04:08:23.240Z,1018.43
2019-02-07T04:09:23.654Z,1018.31
2019-02-07T04:10:23.228Z,1018.3
2019-02-07T04:11:23.414Z,1018.23
2019-02-07T04:12:23.224Z,1018.17
2019-02-07T04:13:23.208Z,1018.2
2019-02-07T04:14:23.583Z,1018.28
2019-02-07T04:15:23.234Z,1018.35
2019-02-07T04:16:23.202Z,1018.37
2019-02-07T04:17:23.815Z,1018.32
2019-02-07T04:18:23.228Z,1018.3
2019-02-07T04:19:23.725Z,1018.28
2019-02-07T04:20:23.238Z,1018.24
2019-02-07T04:21:23.490Z,1018.18
2019-02-07T04:22:23.435Z,1018.17
2019-02-07T04:23:23.290Z,1018.17
2019-02-07T04:24:23.321Z,1018.18
2019-02-07T04:25:23.811Z,1018.19
2019-02-07T04:26:24.087Z,1018.18
2019-02-07T04:27:23.209Z,1018.14
2019-02-07T04:28:23.582Z,1018.1
2019-02-07T04:29:23.784Z,1018.04
2019-02-07T04:30:23.238Z,1018.05
2019-02-07T04:31:23.671Z,1018.03
2019-02-07T04:32:23.293Z,1018.04
2019-02-07T04:33:23.521Z,1018.06
2019-02-07T04:34:23.197Z,1018.01
2019-02-07T04:35:23.266Z,1018
2019-02-07T04:36:23.831Z,1018.02
2019-02-07T04:37:24.628Z,1018.02
2019-02-07T04:38:23.305Z,1017.97
2019-02-07T04:39:23.253Z,1017.93
2019-02-07T04:40:23.287Z,1018
2019-02-07T04:41:23.611Z,1018.04
2019-02-07T04:42:23.246Z,1017.99
2019-02-07T04:43:23.473Z,1017.99
2019-02-07T04:44:23.159Z,1017.97
2019-02-07T04:45:23.190Z,1017.95
2019-02-07T04:46:27.552Z,1017.91
2019-02-07T04:47:23.509Z,1017.89
2019-02-07T04:48:23.502Z,1017.94
2019-02-07T04:49:23.419Z,1017.91
2019-02-07T04:50:23.535Z,1017.92
2019-02-07T04:51:23.162Z,1017.91
2019-02-07T04:52:23.298Z,1017.92
2019-02-07T04:53:23.536Z,1017.9
2019-02-07T04:54:23.176Z,1017.86
2019-02-07T04:55:23.343Z,1017.84
2019-02-07T04:56:23.452Z,1017.87
2019-02-07T04:57:23.869Z,1017.81
2019-02-07T04:58:23.209Z,1017.78
2019-02-07T04:59:23.879Z,1017.77
2019-02-07T05:00:23.379Z,1017.74
2019-02-07T05:01:23.322Z,1017.76
2019-02-07T05:02:23.209Z,1017.82
2019-02-07T05:03:23.601Z,1017.78
2019-02-07T05:04:23.453Z,1017.76
2019-02-07T05:05:24.088Z,1017.79
2019-02-07T05:06:23.281Z,1017.77
2019-02-07T05:07:23.521Z,1017.77
2019-02-07T05:08:23.189Z,1017.76
2019-02-07T05:09:23.178Z,1017.72
2019-02-07T05:10:23.638Z,1017.75
2019-02-07T05:11:23.176Z,1017.67
2019-02-07T05:12:23.608Z,1017.67
2019-02-07T05:13:23.670Z,1017.73
2019-02-07T05:14:23.361Z,1017.72
2019-02-07T05:15:23.163Z,1017.76
2019-02-07T05:16:23.123Z,1017.75
2019-02-07T05:17:23.386Z,1017.71
2019-02-07T05:18:23.266Z,1017.73
2019-02-07T05:19:23.599Z,1017.74
2019-02-07T05:20:23.098Z,1017.79
2019-02-07T05:21:23.161Z,1017.77
2019-02-07T05:22:23.509Z,1017.78
2019-02-07T05:23:23.625Z,1017.8
2019-02-07T05:24:23.643Z,1017.81
2019-02-07T05:25:23.120Z,1017.76
2019-02-07T05:26:23.153Z,1017.77
2019-02-07T05:27:23.706Z,1017.76
2019-02-07T05:28:22.941Z,1017.73
2019-02-07T05:29:24.954Z,1017.79
2019-02-07T05:30:23.302Z,1017.82
2019-02-07T05:31:23.285Z,1017.82
2019-02-07T05:32:23.162Z,1017.85
2019-02-07T05:33:23.135Z,1017.87
2019-02-07T05:34:23.147Z,1017.88
2019-02-07T05:35:23.963Z,1017.86
2019-02-07T05:36:23.416Z,1017.89
2019-02-07T05:37:23.187Z,1017.91
2019-02-07T05:38:23.934Z,1017.93
2019-02-07T05:39:23.109Z,1017.91
2019-02-07T05:40:23.383Z,1017.84
2019-02-07T05:41:22.926Z,1017.83
2019-02-07T05:42:23.311Z,1017.86
2019-02-07T05:43:23.579Z,1017.82
2019-02-07T05:44:23.166Z,1017.81
2019-02-07T05:45:23.465Z,1017.81
2019-02-07T05:46:23.250Z,1017.77
2019-02-07T05:47:23.355Z,1017.76
2019-02-07T05:48:23.568Z,1017.74
2019-02-07T05:49:23.103Z,1017.68
2019-02-07T05:50:24.268Z,1017.67
2019-02-07T05:51:23.495Z,1017.62
2019-02-07T05:52:23.508Z,1017.6
2019-02-07T05:53:24.912Z,1017.58
2019-02-07T05:54:23.321Z,1017.61
2019-02-07T05:55:23.274Z,1017.59
2019-02-07T05:56:23.636Z,1017.52
2019-02-07T05:57:23.442Z,1017.46
2019-02-07T05:58:23.909Z,1017.42
2019-02-07T05:59:23.772Z,1017.35
2019-02-07T06:00:24.919Z,1017.36
2019-02-07T06:01:24.906Z,1017.37
2019-02-07T06:02:23.025Z,1017.42
2019-02-07T06:03:23.065Z,1017.39
2019-02-07T06:04:24.013Z,1017.36
2019-02-07T06:05:23.081Z,1017.27
2019-02-07T06:06:23.129Z,1017.24
2019-02-07T06:07:23.403Z,1017.19
2019-02-07T06:08:23.718Z,1017.13
2019-02-07T06:09:23.425Z,1017.18
2019-02-07T06:10:23.530Z,1017.21
2019-02-07T06:11:23.053Z,1017.23
2019-02-07T06:12:23.251Z,1017.21
2019-02-07T06:13:23.247Z,1017.26
2019-02-07T06:14:23.165Z,1017.29
2019-02-07T06:15:23.288Z,1017.33
2019-02-07T06:16:23.179Z,1017.26
2019-02-07T06:17:23.048Z,1017.24
2019-02-07T06:18:23.021Z,1017.15
2019-02-07T06:19:23.374Z,1017.13
2019-02-07T06:20:23.289Z,1017.2
2019-02-07T06:21:23.648Z,1017.31
2019-02-07T06:22:23.028Z,1017.34
2019-02-07T06:23:23.156Z,1017.31
2019-02-07T06:24:23.019Z,1017.35
2019-02-07T06:25:23.250Z,1017.35
2019-02-07T06:26:23.131Z,1017.35
2019-02-07T06:27:23.143Z,1017.37
2019-02-07T06:28:23.205Z,1017.42
2019-02-07T06:29:23.578Z,1017.34
2019-02-07T06:30:23.282Z,1017.27
2019-02-07T06:31:23.560Z,1017.29
2019-02-07T06:32:23.152Z,1017.31
2019-02-07T06:33:23.565Z,1017.34
2019-02-07T06:34:29.523Z,1017.3
2019-02-07T06:35:23.893Z,1017.32
2019-02-07T06:36:23.266Z,1017.34
2019-02-07T06:37:23.254Z,1017.33
2019-02-07T06:38:23.345Z,1017.32
2019-02-07T06:39:23.124Z,1017.32
2019-02-07T06:40:23.335Z,1017.31
2019-02-07T06:41:23.726Z,1017.3
2019-02-07T06:42:23.481Z,1017.28
2019-02-07T06:43:23.004Z,1017.28
2019-02-07T06:44:23.612Z,1017.31
2019-02-07T06:45:22.994Z,1017.3
2019-02-07T06:46:24.020Z,1017.3
2019-02-07T06:47:23.787Z,1017.29
2019-02-07T06:48:23.786Z,1017.28
2019-02-07T06:49:23.995Z,1017.28
2019-02-07T06:50:23.105Z,1017.31
2019-02-07T06:51:23.389Z,1017.28
2019-02-07T06:52:23.443Z,1017.32
2019-02-07T06:53:24.216Z,1017.33
2019-02-07T06:54:23.499Z,1017.31
2019-02-07T06:55:23.413Z,1017.31
2019-02-07T06:56:23.416Z,1017.25
2019-02-07T06:57:23.174Z,1017.23
2019-02-07T06:58:23.144Z,1017.24
2019-02-07T06:59:23.241Z,1017.19
2019-02-07T07:00:24.112Z,1017.17
2019-02-07T07:01:23.006Z,1017.21
2019-02-07T07:02:23.122Z,1017.17
2019-02-07T07:03:23.050Z,1017.16
2019-02-07T07:04:23.675Z,1017.13
2019-02-07T07:05:23.252Z,1017.11
2019-02-07T07:06:23.281Z,1017.08
2019-02-07T07:07:23.167Z,1017.01
2019-02-07T07:08:24.167Z,1017.04
2019-02-07T07:09:23.610Z,1017.06
2019-02-07T07:10:23.040Z,1017.09
2019-02-07T07:11:23.085Z,1017.12
2019-02-07T07:12:22.986Z,1017.08
2019-02-07T07:13:23.625Z,1017
2019-02-07T07:14:23.849Z,1017.09
2019-02-07T07:15:22.982Z,1017.04
2019-02-07T07:16:23.395Z,1017.03
2019-02-07T07:17:26.682Z,1016.99
2019-02-07T07:18:23.126Z,1017.04
2019-02-07T07:19:23.039Z,1017.05
2019-02-07T07:20:23.267Z,1017.06
2019-02-07T07:21:23.095Z,1017.05
2019-02-07T07:22:22.991Z,1017.02
2019-02-07T07:23:23.185Z,1016.98
2019-02-07T07:24:23.652Z,1016.96
2019-02-07T07:25:23.298Z,1016.89
2019-02-07T07:26:23.410Z,1016.92
2019-02-07T07:27:23.019Z,1016.87
2019-02-07T07:28:23.420Z,1016.85
2019-02-07T07:29:22.928Z,1016.92
2019-02-07T07:30:23.052Z,1016.88
2019-02-07T07:31:23.233Z,1016.86
2019-02-07T07:32:24.015Z,1016.8
2019-02-07T07:33:23.275Z,1016.8
2019-02-07T07:34:23.178Z,1016.7
2019-02-07T07:35:23.195Z,1016.7
2019-02-07T07:36:23.194Z,1016.72
2019-02-07T07:37:23.196Z,1016.71
2019-02-07T07:38:23.005Z,1016.7
2019-02-07T07:39:23.494Z,1016.74
2019-02-07T07:40:23.192Z,1016.74
2019-02-07T07:41:23.197Z,1016.7
2019-02-07T07:42:23.824Z,1016.65
2019-02-07T07:43:23.061Z,1016.62
2019-02-07T07:44:22.992Z,1016.64
2019-02-07T07:45:23.028Z,1016.63
2019-02-07T07:46:23.230Z,1016.54
2019-02-07T07:47:23.301Z,1016.55
2019-02-07T07:48:23.386Z,1016.5
2019-02-07T07:49:23.247Z,1016.47
2019-02-07T07:50:23.256Z,1016.44
2019-02-07T07:51:22.884Z,1016.51
2019-02-07T07:52:22.973Z,1016.52
2019-02-07T07:53:23.281Z,1016.56
2019-02-07T07:54:23.052Z,1016.52
2019-02-07T07:55:23.241Z,1016.5
2019-02-07T07:56:22.976Z,1016.52
2019-02-07T07:57:22.951Z,1016.56
2019-02-07T07:58:22.921Z,1016.56
2019-02-07T07:59:22.987Z,1016.52
2019-02-07T08:00:23.021Z,1016.51
2019-02-07T08:01:23.084Z,1016.56
2019-02-07T08:02:22.936Z,1016.62
2019-02-07T08:03:24.273Z,1016.58
2019-02-07T08:04:22.958Z,1016.57
2019-02-07T08:05:22.968Z,1016.6
2019-02-07T08:06:23.018Z,1016.59
2019-02-07T08:07:23.164Z,1016.6
2019-02-07T08:08:23.180Z,1016.57
2019-02-07T08:09:23.181Z,1016.54
2019-02-07T08:10:23.079Z,1016.5
2019-02-07T08:11:22.977Z,1016.42
2019-02-07T08:12:23.198Z,1016.5
2019-02-07T08:13:22.991Z,1016.49
2019-02-07T08:14:23.212Z,1016.43
2019-02-07T08:15:23.227Z,1016.42
2019-02-07T08:16:23.225Z,1016.41
2019-02-07T08:17:22.680Z,1016.35
2019-02-07T08:18:23.377Z,1016.4
2019-02-07T08:19:24.011Z,1016.4
2019-02-07T08:20:23.255Z,1016.41
2019-02-07T08:21:23.161Z,1016.46
2019-02-07T08:22:23.374Z,1016.48
2019-02-07T08:23:22.687Z,1016.47
2019-02-07T08:24:23.077Z,1016.4
2019-02-07T08:25:22.904Z,1016.45
2019-02-07T08:26:23.891Z,1016.42
2019-02-07T08:27:22.939Z,1016.38
2019-02-07T08:28:23.106Z,1016.39
2019-02-07T08:29:24.694Z,1016.4
2019-02-07T08:30:22.997Z,1016.38
2019-02-07T08:31:22.828Z,1016.4
2019-02-07T08:32:23.232Z,1016.39
2019-02-07T08:33:23.107Z,1016.37
2019-02-07T08:34:23.396Z,1016.4
2019-02-07T08:35:22.918Z,1016.43
2019-02-07T08:36:23.201Z,1016.43
2019-02-07T08:37:23.179Z,1016.38
2019-02-07T08:38:23.265Z,1016.36
2019-02-07T08:39:23.165Z,1016.38
2019-02-07T08:40:22.981Z,1016.37
2019-02-07T08:41:23.089Z,1016.3
2019-02-07T08:42:23.857Z,1016.33
2019-02-07T08:43:23.337Z,1016.38
2019-02-07T08:44:23.202Z,1016.46
2019-02-07T08:45:23.388Z,1016.45
2019-02-07T08:46:23.660Z,1016.46
2019-02-07T08:47:22.860Z,1016.41
2019-02-07T08:48:23.334Z,1016.4
2019-02-07T08:49:22.819Z,1016.41
2019-02-07T08:50:24.783Z,1016.4
2019-02-07T08:51:22.899Z,1016.4
2019-02-07T08:52:24.655Z,1016.4
2019-02-07T08:53:22.962Z,1016.39
2019-02-07T08:54:22.999Z,1016.4
2019-02-07T08:55:23.689Z,1016.35
2019-02-07T08:56:23.293Z,1016.4
2019-02-07T08:57:22.955Z,1016.39
2019-02-07T08:58:23.532Z,1016.34
2019-02-07T08:59:23.111Z,1016.33
2019-02-07T09:00:23.126Z,1016.33
2019-02-07T09:01:23.008Z,1016.33
2019-02-07T09:02:23.000Z,1016.3
2019-02-07T09:03:23.092Z,1016.26
2019-02-07T09:04:22.783Z,1016.27
2019-02-07T09:05:23.328Z,1016.24
2019-02-07T09:06:23.656Z,1016.22
2019-02-07T09:07:22.770Z,1016.12
2019-02-07T09:08:23.272Z,1016.13
2019-02-07T09:09:22.849Z,1016.09
2019-02-07T09:10:23.174Z,1016.07
2019-02-07T09:11:22.981Z,1016.14
2019-02-07T09:12:23.601Z,1016.13
2019-02-07T09:13:23.244Z,1016.13
2019-02-07T09:14:23.224Z,1016.2
2019-02-07T09:15:22.749Z,1016.11
2019-02-07T09:16:23.041Z,1016.13
2019-02-07T09:17:22.836Z,1016.12
2019-02-07T09:18:24.633Z,1016.15
2019-02-07T09:19:23.229Z,1016.15
2019-02-07T09:20:22.804Z,1016.14
2019-02-07T09:21:23.398Z,1016.13
2019-02-07T09:22:24.128Z,1016.1
2019-02-07T09:23:22.799Z,1016.08
2019-02-07T09:24:22.898Z,1016.13
2019-02-07T09:25:23.274Z,1016.19
2019-02-07T09:26:23.217Z,1016.2
2019-02-07T09:27:22.985Z,1016.23
2019-02-07T09:28:23.086Z,1016.25
2019-02-07T09:29:23.251Z,1016.21
2019-02-07T09:30:22.946Z,1016.2
2019-02-07T09:31:22.769Z,1016.16
2019-02-07T09:32:23.027Z,1016.13
2019-02-07T09:33:27.031Z,1016.21
2019-02-07T09:34:22.761Z,1016.15
2019-02-07T09:35:23.029Z,1016.15
2019-02-07T09:36:22.767Z,1016.24
2019-02-07T09:37:22.788Z,1016.17
2019-02-07T09:38:23.109Z,1016.23
2019-02-07T09:39:23.157Z,1016.18
2019-02-07T09:40:22.755Z,1016.19
2019-02-07T09:41:22.760Z,1016.18
2019-02-07T09:42:23.069Z,1016.12
2019-02-07T09:43:25.694Z,1016.14
2019-02-07T09:44:23.039Z,1016.16
2019-02-07T09:45:22.854Z,1016.14
2019-02-07T09:46:23.013Z,1016.14
2019-02-07T09:47:23.014Z,1016.17
2019-02-07T09:48:24.578Z,1016.16
2019-02-07T09:49:23.224Z,1016.11
2019-02-07T09:50:23.037Z,1016.15
2019-02-07T09:51:22.752Z,1016.22
2019-02-07T09:52:23.502Z,1016.23
2019-02-07T09:53:24.374Z,1016.27
2019-02-07T09:54:22.750Z,1016.25
2019-02-07T09:55:24.549Z,1016.28
2019-02-07T09:56:23.117Z,1016.31
2019-02-07T09:57:22.687Z,1016.35
2019-02-07T09:58:22.681Z,1016.31
2019-02-07T09:59:23.191Z,1016.29
2019-02-07T10:00:23.707Z,1016.32
2019-02-07T10:01:23.010Z,1016.39
2019-02-07T10:02:22.717Z,1016.4
2019-02-07T10:03:23.101Z,1016.42
2019-02-07T10:04:23.023Z,1016.38
2019-02-07T10:05:23.033Z,1016.43
2019-02-07T10:06:23.578Z,1016.48
2019-02-07T10:07:22.871Z,1016.42
2019-02-07T10:08:23.331Z,1016.44
2019-02-07T10:09:22.807Z,1016.42
2019-02-07T10:10:23.068Z,1016.45
2019-02-07T10:11:23.063Z,1016.45
2019-02-07T10:12:23.192Z,1016.51
2019-02-07T10:13:23.389Z,1016.47
2019-02-07T10:14:22.676Z,1016.46
2019-02-07T10:15:23.072Z,1016.49
2019-02-07T10:16:23.005Z,1016.58
2019-02-07T10:17:23.108Z,1016.61
2019-02-07T10:18:33.379Z,1016.59
2019-02-07T10:19:24.344Z,1016.57
2019-02-07T10:20:22.669Z,1016.54
2019-02-07T10:21:22.659Z,1016.47
2019-02-07T10:22:24.521Z,1016.4
2019-02-07T10:23:23.491Z,1016.39
2019-02-07T10:24:22.698Z,1016.37
2019-02-07T10:25:22.660Z,1016.33
2019-02-07T10:26:22.849Z,1016.26
2019-02-07T10:27:23.017Z,1016.24
2019-02-07T10:28:23.069Z,1016.16
2019-02-07T10:29:24.507Z,1016.06
2019-02-07T10:30:22.985Z,1016.17
2019-02-07T10:31:22.910Z,1016.15
2019-02-07T10:32:23.010Z,1016.18
2019-02-07T10:33:23.009Z,1016.11
2019-02-07T10:34:23.012Z,1016.14
2019-02-07T10:35:23.378Z,1016.19
2019-02-07T10:36:22.671Z,1016.17
2019-02-07T10:37:22.629Z,1016.12
2019-02-07T10:38:23.778Z,1016.07
2019-02-07T10:39:22.661Z,1016.13
2019-02-07T10:40:22.749Z,1016.07
2019-02-07T10:41:23.061Z,1016.04
2019-02-07T10:42:22.656Z,1016.06
2019-02-07T10:43:22.688Z,1016.01
2019-02-07T10:44:22.971Z,1016.01
2019-02-07T10:45:22.641Z,1015.95
2019-02-07T10:46:23.349Z,1015.99
2019-02-07T10:47:22.632Z,1016.08
2019-02-07T10:48:22.451Z,1015.96
2019-02-07T10:49:23.010Z,1016.04
2019-02-07T10:50:23.030Z,1015.92
2019-02-07T10:51:23.226Z,1016.02
2019-02-07T10:52:22.693Z,1016.11
2019-02-07T10:53:22.625Z,1016.02
2019-02-07T10:54:23.197Z,1015.99
2019-02-07T10:55:24.474Z,1016.03
2019-02-07T10:56:22.650Z,1015.95
2019-02-07T10:57:24.454Z,1015.99
2019-02-07T10:58:25.699Z,1015.94
2019-02-07T10:59:22.739Z,1015.95
2019-02-07T11:00:24.473Z,1015.96
2019-02-07T11:01:24.462Z,1015.94
2019-02-07T11:02:23.354Z,1015.93
2019-02-07T11:03:22.896Z,1015.94
2019-02-07T11:04:22.768Z,1015.92
2019-02-07T11:05:22.775Z,1015.87
2019-02-07T11:06:22.704Z,1015.84
2019-02-07T11:07:22.790Z,1015.81
2019-02-07T11:08:22.893Z,1015.74
2019-02-07T11:09:22.627Z,1015.72
2019-02-07T11:10:22.767Z,1015.76
2019-02-07T11:11:22.932Z,1015.73
2019-02-07T11:12:22.965Z,1015.71
2019-02-07T11:13:22.604Z,1015.87
2019-02-07T11:14:23.070Z,1015.73
2019-02-07T11:15:22.672Z,1015.74
2019-02-07T11:16:22.981Z,1015.78
2019-02-07T11:17:22.940Z,1015.83
2019-02-07T11:18:22.720Z,1015.75
2019-02-07T11:19:22.932Z,1015.83
2019-02-07T11:20:22.602Z,1015.82
2019-02-07T11:21:22.688Z,1015.83
2019-02-07T11:22:23.280Z,1015.86
2019-02-07T11:23:22.823Z,1015.89
2019-02-07T11:24:22.589Z,1015.85
2019-02-07T11:25:22.738Z,1015.88
2019-02-07T11:26:22.645Z,1015.85
2019-02-07T11:27:22.678Z,1015.83
2019-02-07T11:28:22.629Z,1015.85
2019-02-07T11:29:23.277Z,1015.84
2019-02-07T11:30:22.703Z,1015.73
2019-02-07T11:31:22.654Z,1015.8
2019-02-07T11:32:22.782Z,1015.84
2019-02-07T11:33:22.914Z,1015.73
2019-02-07T11:34:22.656Z,1015.82
2019-02-07T11:35:22.665Z,1015.77
2019-02-07T11:36:22.624Z,1015.79
2019-02-07T11:37:23.028Z,1015.75
2019-02-07T11:38:22.937Z,1015.68
2019-02-07T11:39:22.706Z,1015.62
2019-02-07T11:40:22.530Z,1015.62
2019-02-07T11:41:23.303Z,1015.66
2019-02-07T11:42:22.688Z,1015.52
2019-02-07T11:43:22.599Z,1015.45
2019-02-07T11:44:23.068Z,1015.55
2019-02-07T11:45:22.368Z,1015.54
2019-02-07T11:46:23.081Z,1015.46
2019-02-07T11:47:22.987Z,1015.49
2019-02-07T11:48:22.628Z,1015.61
2019-02-07T11:49:22.796Z,1015.52
2019-02-07T11:50:23.219Z,1015.5
2019-02-07T11:51:23.523Z,1015.54
2019-02-07T11:52:23.126Z,1015.49
2019-02-07T11:53:23.025Z,1015.42
2019-02-07T11:54:23.030Z,1015.42
2019-02-07T11:55:25.246Z,1015.33
2019-02-07T11:56:23.571Z,1015.31
2019-02-07T11:57:22.876Z,1015.42
2019-02-07T11:58:23.048Z,1015.41
2019-02-07T11:59:22.697Z,1015.5
2019-02-07T12:00:22.576Z,1015.49
2019-02-07T12:01:22.984Z,1015.58
2019-02-07T12:02:22.639Z,1015.55
2019-02-07T12:03:22.658Z,1015.51
2019-02-07T12:04:22.616Z,1015.52
2019-02-07T12:05:24.041Z,1015.55
2019-02-07T12:06:22.906Z,1015.58
2019-02-07T12:07:24.354Z,1015.57
2019-02-07T12:08:22.370Z,1015.56